Veroniki III — SY6044 — position and weather

sailwx.info

Track history (hours):
 
Tides and Currents Weather Stations Pressure Air Temp Water Temp Dewpoint Dewpoint Depression Visibility Wind Speed Wind Dir Waves Ship Positions

Veroniki III

Last reported at 2018-Feb-22 16:33 UTC. Time now 2018-Feb-22 20:32 UTC.
Position N 37°34' E 023°46'.

Length 51 m; draft 3.5 m.

Type: Tanker. MMSI: 240388000.

Date/timePositionNaut miles runAvg speedWind from/ knotsBaromVisibWave heightAir tempDewpointWater temp
2018-Feb-22 16:33N 37°34' E 023°46'310.3
2018-Feb-22 16:15N 37°36' E 023°44'310.4
2018-Feb-22 15:59N 37°39' E 023°43'510.3
2018-Feb-22 15:30N 37°43' E 023°40'510.4
2018-Feb-22 15:00N 37°48' E 023°37'510.2
2018-Feb-22 14:30N 37°53' E 023°36'5 9.3
2018-Feb-22 14:00N 37°57' E 023°33'4 8.7
2018-Feb-22 13:30N 38°01' E 023°35'1 1.2
2018-Feb-22 13:00N 38°02' E 023°36'0 0.0
2018-Feb-22 12:30N 38°02' E 023°36'0 0.0
2018-Feb-22 12:00N 38°02' E 023°36'0 0.0
2018-Feb-22 11:30N 38°02' E 023°36'0 0.0
2018-Feb-22 11:00N 38°02' E 023°36'0 0.0
2018-Feb-22 10:30N 38°02' E 023°36'0 0.0
2018-Feb-22 10:00N 38°02' E 023°36'0 0.0
2018-Feb-22 09:30N 38°02' E 023°36'0 0.0
2018-Feb-22 09:00N 38°02' E 023°36'0 0.0
2018-Feb-22 08:30N 38°02' E 023°36'0 0.0
2018-Feb-22 08:00N 38°02' E 023°36'0 0.0
2018-Feb-22 07:30N 38°02' E 023°36'0 0.0
2018-Feb-22 07:01N 38°02' E 023°36'0 0.0
2018-Feb-22 06:29N 38°02' E 023°36'0 0.0
2018-Feb-22 06:00N 38°02' E 023°36'0 0.0
2018-Feb-22 05:30N 38°02' E 023°36'0 0.0
2018-Feb-22 05:00N 38°02' E 023°36'0 0.0
2018-Feb-22 04:30N 38°02' E 023°36'0 0.0
2018-Feb-22 04:00N 38°02' E 023°36'0 0.5
2018-Feb-22 03:30N 38°02' E 023°35'0 0.0
2018-Feb-22 03:00N 38°02' E 023°35'0 0.0
2018-Feb-22 02:30N 38°02' E 023°35'0 0.0
2018-Feb-22 02:00N 38°02' E 023°35'0 0.1
2018-Feb-22 01:30N 38°02' E 023°35'0 0.0
2018-Feb-22 01:00N 38°02' E 023°35'0 0.0
2018-Feb-22 00:31N 38°02' E 023°35'0 0.0
2018-Feb-22 00:00N 38°02' E 023°35'0 0.0
2018-Feb-21 23:30N 38°02' E 023°35'0 0.0
2018-Feb-21 23:00N 38°02' E 023°35'2 3.1
2018-Feb-21 22:30N 38°01' E 023°34'3 5.3
2018-Feb-21 22:01N 38°02' E 023°31'0 0.0
2018-Feb-21 21:31N 38°02' E 023°31'0 0.0
2018-Feb-21 21:00N 38°02' E 023°31'0 0.0
2018-Feb-21 20:31N 38°02' E 023°31'0 0.0
2018-Feb-21 20:00N 38°02' E 023°31'0 0.0
2018-Feb-21 19:30N 38°02' E 023°31'0 0.0
2018-Feb-21 19:00N 38°02' E 023°31'0 0.0
2018-Feb-21 18:31N 38°02' E 023°31'0 0.0
2018-Feb-21 18:00N 38°02' E 023°31'0 0.0
2018-Feb-21 17:30N 38°02' E 023°31'0 0.0
2018-Feb-21 17:00N 38°02' E 023°31'0 0.0
2018-Feb-21 16:30N 38°02' E 023°31'0 0.0
2018-Feb-21 16:00N 38°02' E 023°31'0 0.0
2018-Feb-21 15:31N 38°02' E 023°31'1 1.4
2018-Feb-21 15:00N 38°02' E 023°31'0 0.1
2018-Feb-21 14:30N 38°02' E 023°31'0 0.0
2018-Feb-21 14:01N 38°02' E 023°31'0 0.0
2018-Feb-21 13:30N 38°02' E 023°31'0 0.0
2018-Feb-21 13:00N 38°02' E 023°31'0 0.2
2018-Feb-21 12:30N 38°02' E 023°31'3 6.6
2018-Feb-21 12:00N 38°02' E 023°36'0 0.0
2018-Feb-21 11:30N 38°02' E 023°36'0 0.0
2018-Feb-21 11:00N 38°02' E 023°36'0 0.0
2018-Feb-21 10:30N 38°02' E 023°36'0 0.0
2018-Feb-21 10:00N 38°02' E 023°36'0 0.0
2018-Feb-21 09:30N 38°02' E 023°36'0 0.0
2018-Feb-21 09:00N 38°02' E 023°36'0 0.0
2018-Feb-21 08:30N 38°02' E 023°36'0 0.0
2018-Feb-21 08:00N 38°02' E 023°36'0 0.0
2018-Feb-21 07:30N 38°02' E 023°36'0 0.0
2018-Feb-21 07:00N 38°02' E 023°36'0 0.0
2018-Feb-21 06:30N 38°02' E 023°36'0 0.0
2018-Feb-21 06:00N 38°02' E 023°36'0 0.0
2018-Feb-21 05:30N 38°02' E 023°36'0 0.0
2018-Feb-21 05:00N 38°02' E 023°36'0 0.0
2018-Feb-21 04:31N 38°02' E 023°36'0 0.0
2018-Feb-21 04:00N 38°02' E 023°36'0 0.0
2018-Feb-21 03:30N 38°02' E 023°36'0 0.0
2018-Feb-21 03:00N 38°02' E 023°36'0 0.0
2018-Feb-21 02:30N 38°02' E 023°36'0 0.0
2018-Feb-21 02:00N 38°02' E 023°36'0 0.0
2018-Feb-21 01:30N 38°02' E 023°36'0 0.0
2018-Feb-21 01:00N 38°02' E 023°36'0 0.0
2018-Feb-21 00:30N 38°02' E 023°36'0 0.0
2018-Feb-21 00:00N 38°02' E 023°36'0 0.0
2018-Feb-20 23:30N 38°02' E 023°36'0 0.0
2018-Feb-20 23:00N 38°02' E 023°36'0 0.0
2018-Feb-20 22:30N 38°02' E 023°36'0 0.0
2018-Feb-20 22:00N 38°02' E 023°36'0 0.0
2018-Feb-20 21:30N 38°02' E 023°36'0 0.0
2018-Feb-20 21:00N 38°02' E 023°36'0 0.0
2018-Feb-20 20:30N 38°02' E 023°36'0 0.0
2018-Feb-20 20:00N 38°02' E 023°36'0 0.0
2018-Feb-20 19:30N 38°02' E 023°36'0 0.0
2018-Feb-20 19:00N 38°02' E 023°36'0 0.0
2018-Feb-20 18:30N 38°02' E 023°36'0 0.3
2018-Feb-20 18:00N 38°02' E 023°35'3 6.3
2018-Feb-20 17:30N 38°02' E 023°31'1 1.8
2018-Feb-20 17:00N 38°02' E 023°31'0 0.0
2018-Feb-20 16:30N 38°02' E 023°31'0 0.0
2018-Feb-20 16:00N 38°02' E 023°31'0 0.0
2018-Feb-20 15:30N 38°02' E 023°31'0 0.0
2018-Feb-20 15:00N 38°02' E 023°31'0 0.0
2018-Feb-20 14:30N 38°02' E 023°31'0 0.0
2018-Feb-20 14:00N 38°02' E 023°31'0 0.0
2018-Feb-20 13:30N 38°02' E 023°31'0 0.0
2018-Feb-20 13:00N 38°02' E 023°31'0 0.0
2018-Feb-20 12:30N 38°02' E 023°31'0 0.7
2018-Feb-20 12:00N 38°02' E 023°31'3 6.2
2018-Feb-20 11:30N 38°01' E 023°35'1 1.9
2018-Feb-20 11:00N 38°02' E 023°36'0 0.0
2018-Feb-20 10:30N 38°02' E 023°36'0 0.0
2018-Feb-20 10:00N 38°02' E 023°36'0 0.0
2018-Feb-20 09:30N 38°02' E 023°36'0 0.0
2018-Feb-20 09:00N 38°02' E 023°36'0 0.0
2018-Feb-20 08:30N 38°02' E 023°36'0 0.0
2018-Feb-20 08:00N 38°02' E 023°36'0 0.0
2018-Feb-20 07:30N 38°02' E 023°36'0 0.0
2018-Feb-20 07:00N 38°02' E 023°36'0 0.0
2018-Feb-20 06:30N 38°02' E 023°36'0 0.0
2018-Feb-20 06:00N 38°02' E 023°36'0 0.0
2018-Feb-20 05:30N 38°02' E 023°36'0 0.0
2018-Feb-20 05:00N 38°02' E 023°36'0 0.0
2018-Feb-20 04:30N 38°02' E 023°36'0 0.0
2018-Feb-20 04:00N 38°02' E 023°36'0 0.0
2018-Feb-20 03:30N 38°02' E 023°36'0 0.0
2018-Feb-20 03:00N 38°02' E 023°36'0 0.0
2018-Feb-20 02:30N 38°02' E 023°36'0 0.0
2018-Feb-20 02:01N 38°02' E 023°36'0 0.0
2018-Feb-20 01:30N 38°02' E 023°36'0 0.0
2018-Feb-20 01:00N 38°02' E 023°36'0 0.0
2018-Feb-20 00:30N 38°02' E 023°36'0 0.0
2018-Feb-20 00:01N 38°02' E 023°36'0 0.0
2018-Feb-19 23:30N 38°02' E 023°36'0 0.0
2018-Feb-19 23:00N 38°02' E 023°36'0 0.0
2018-Feb-19 22:30N 38°02' E 023°36'0 0.0
2018-Feb-19 22:01N 38°02' E 023°36'0 0.0
2018-Feb-19 21:30N 38°02' E 023°36'0 0.0
2018-Feb-19 21:00N 38°02' E 023°36'0 0.0
2018-Feb-19 20:30N 38°02' E 023°36'0 0.0
2018-Feb-19 20:00N 38°02' E 023°36'0 0.0
2018-Feb-19 19:30N 38°02' E 023°36'0 0.0
2018-Feb-19 19:00N 38°02' E 023°36'0 0.0
2018-Feb-19 18:30N 38°02' E 023°36'0 0.0
2018-Feb-19 18:00N 38°02' E 023°36'0 0.0
2018-Feb-19 17:30N 38°02' E 023°36'0 0.0
2018-Feb-19 17:00N 38°02' E 023°36'0 0.0
2018-Feb-19 16:30N 38°02' E 023°36'0 0.0
2018-Feb-19 15:59N 38°02' E 023°36'0 0.0
2018-Feb-19 15:30N 38°02' E 023°36'0 0.0
2018-Feb-19 15:00N 38°02' E 023°36'0 0.0
2018-Feb-19 14:30N 38°02' E 023°36'0 0.0
2018-Feb-19 14:00N 38°02' E 023°36'0 0.0
2018-Feb-19 13:30N 38°02' E 023°36'0 0.0
2018-Feb-19 13:00N 38°02' E 023°36'0 0.0
2018-Feb-19 12:30N 38°02' E 023°36'0 0.0
2018-Feb-19 12:00N 38°02' E 023°36'4 7.6
2018-Feb-19 11:30N 37°59' E 023°33'5 9.7
2018-Feb-19 11:00N 37°54' E 023°36'511.1
2018-Feb-19 10:30N 37°50' E 023°40'611.0
2018-Feb-19 10:00N 37°45' E 023°42'510.9
2018-Feb-19 09:30N 37°40' E 023°46'70 1.9
2018-Feb-17 19:41N 37°54' E 025°13'2 8.2
2018-Feb-17 19:30N 37°54' E 025°12'5 8.2
2018-Feb-17 18:55N 37°51' E 025°07'6 8.3
2018-Feb-17 18:08N 37°47' E 024°60'0 0.0
2018-Feb-16 22:40N 37°47' E 024°60'1 5.4
2018-Feb-16 22:29N 37°46' E 025°01'3 6.0
2018-Feb-16 21:55N 37°43' E 024°60'6 7.2
2018-Feb-16 21:04N 37°42' E 024°52'110.0
2018-Feb-16 20:59N 37°42' E 024°51'54 8.3
2018-Feb-16 14:32N 37°40' E 023°43'010.3
2018-Feb-16 14:30N 37°40' E 023°43'510.4
2018-Feb-16 14:00N 37°45' E 023°39'510.9
2018-Feb-16 13:30N 37°49' E 023°36'510.4
2018-Feb-16 13:00N 37°51' E 023°30'510.6
2018-Feb-16 12:30N 37°53' E 023°24'5 9.4
2018-Feb-16 12:00N 37°57' E 023°25'4 7.9
2018-Feb-16 11:30N 38°01' E 023°28'3 5.3
2018-Feb-16 11:00N 38°02' E 023°31'0 0.0
2018-Feb-16 10:31N 38°02' E 023°31'0 0.0
2018-Feb-16 10:00N 38°02' E 023°31'0 0.0
2018-Feb-16 09:30N 38°02' E 023°31'0 0.0
2018-Feb-16 09:00N 38°02' E 023°31'0 0.0
2018-Feb-16 08:30N 38°02' E 023°31'0 0.0
2018-Feb-16 08:00N 38°02' E 023°31'0 0.0
2018-Feb-16 07:30N 38°02' E 023°31'0 0.0
2018-Feb-16 07:00N 38°02' E 023°31'0 0.0
2018-Feb-16 06:30N 38°02' E 023°31'0 0.8
2018-Feb-16 06:00N 38°02' E 023°31'3 6.4
2018-Feb-16 05:30N 38°01' E 023°35'1 1.4
2018-Feb-16 05:00N 38°02' E 023°36'0 0.0
2018-Feb-16 04:30N 38°02' E 023°36'0 0.0
2018-Feb-16 04:00N 38°02' E 023°36'0 0.0
2018-Feb-16 03:30N 38°02' E 023°36'0 0.0
2018-Feb-16 03:00N 38°02' E 023°36'0 0.0
2018-Feb-16 02:30N 38°02' E 023°36'0 0.0
2018-Feb-16 02:00N 38°02' E 023°36'0 0.0
2018-Feb-16 01:30N 38°02' E 023°36'0 0.0
2018-Feb-16 01:00N 38°02' E 023°36'0 0.0
2018-Feb-16 00:30N 38°02' E 023°36'0 0.0
2018-Feb-16 00:00N 38°02' E 023°36'0 0.0
2018-Feb-15 23:31N 38°02' E 023°36'0 0.0
2018-Feb-15 23:00N 38°02' E 023°36'0 0.0
2018-Feb-15 22:30N 38°02' E 023°36'0 0.0
2018-Feb-15 22:00N 38°02' E 023°36'0 0.0
2018-Feb-15 21:30N 38°02' E 023°36'0 0.0
2018-Feb-15 21:00N 38°02' E 023°36'0 0.0
2018-Feb-15 20:30N 38°02' E 023°36'0 0.0
2018-Feb-15 20:00N 38°02' E 023°36'0 0.0
2018-Feb-15 19:30N 38°02' E 023°36'0 0.0
2018-Feb-15 19:01N 38°02' E 023°36'0 0.0
2018-Feb-15 18:30N 38°02' E 023°36'0 0.0
2018-Feb-15 18:00N 38°02' E 023°36'0 0.0
2018-Feb-15 17:30N 38°02' E 023°36'0 0.0
2018-Feb-15 17:00N 38°02' E 023°36'0 0.0
2018-Feb-15 16:30N 38°02' E 023°36'0 0.0
2018-Feb-15 16:00N 38°02' E 023°36'0 0.0
2018-Feb-15 15:31N 38°02' E 023°36'0 0.0
2018-Feb-15 15:01N 38°02' E 023°36'0 0.0
2018-Feb-15 14:30N 38°02' E 023°36'0 0.0
2018-Feb-15 14:00N 38°02' E 023°36'0 0.0
2018-Feb-15 13:30N 38°02' E 023°36'0 0.0
2018-Feb-15 13:00N 38°02' E 023°36'0 0.0
2018-Feb-15 12:30N 38°02' E 023°36'0 0.0
2018-Feb-15 12:00N 38°02' E 023°36'0 0.0
2018-Feb-15 11:30N 38°02' E 023°36'0 0.0
2018-Feb-15 11:00N 38°02' E 023°36'0 0.0
2018-Feb-15 10:31N 38°02' E 023°36'0 0.0
2018-Feb-15 10:00N 38°02' E 023°36'0 0.0
2018-Feb-15 09:30N 38°02' E 023°36'0 0.0
2018-Feb-15 09:00N 38°02' E 023°36'3 5.8
2018-Feb-15 08:31N 38°01' E 023°32'1 2.9
2018-Feb-15 08:00N 38°02' E 023°31'0 0.0
2018-Feb-15 07:30N 38°02' E 023°31'0 0.0
2018-Feb-15 07:00N 38°02' E 023°31'0 0.0
2018-Feb-15 06:30N 38°02' E 023°31'0 0.0
2018-Feb-15 06:00N 38°02' E 023°31'0 0.0
2018-Feb-15 05:30N 38°02' E 023°31'0 0.0
2018-Feb-15 05:00N 38°02' E 023°31'0 0.0
2018-Feb-15 04:31N 38°02' E 023°31'0 0.0
2018-Feb-15 04:00N 38°02' E 023°31'0 0.0
2018-Feb-15 03:29N 38°02' E 023°31'0 0.0
2018-Feb-15 03:00N 38°02' E 023°31'0 0.0
2018-Feb-15 02:30N 38°02' E 023°31'1 1.8
2018-Feb-15 02:00N 38°01' E 023°31'0 0.1
2018-Feb-15 01:30N 38°01' E 023°31'0 0.0
2018-Feb-15 01:00N 38°01' E 023°31'0 0.0
2018-Feb-15 00:30N 38°01' E 023°31'0 0.0
2018-Feb-15 00:00N 38°01' E 023°31'0 0.0
2018-Feb-14 23:30N 38°01' E 023°31'3 5.4
2018-Feb-14 23:00N 38°00' E 023°28'4 7.9
2018-Feb-14 22:30N 37°57' E 023°24'4 8.9
2018-Feb-14 22:01N 37°53' E 023°23'611.1
2018-Feb-14 21:30N 37°51' E 023°29'510.9
2018-Feb-14 21:00N 37°50' E 023°36'510.0
2018-Feb-14 20:30N 37°47' E 023°41'52 9.7
2018-Feb-14 15:11N 37°33' E 024°44'2 9.8
2018-Feb-14 15:00N 37°33' E 024°46'8 9.8
2018-Feb-14 14:10N 37°31' E 024°56'510.2
2018-Feb-14 13:42N 37°27' E 024°60'2 9.1
2018-Feb-14 13:30N 37°25' E 024°59'0 0.1
2018-Feb-14 12:44N 37°25' E 024°59'0 0.0
2018-Feb-14 12:11N 37°25' E 024°59'0 0.0
2018-Feb-14 11:50N 37°25' E 024°59'0 0.0
2018-Feb-14 10:50N 37°25' E 024°59'0 0.0
2018-Feb-14 04:56N 37°25' E 024°59'0 0.0
2018-Feb-14 04:29N 37°25' E 024°59'0 0.0
2018-Feb-14 03:29N 37°25' E 024°59'0 0.0
2018-Feb-14 02:59N 37°25' E 024°59'0 0.0
2018-Feb-14 02:17N 37°25' E 024°59'0 0.9
2018-Feb-14 02:00N 37°25' E 024°59'4 7.8
2018-Feb-14 01:29N 37°28' E 025°03'510.5
2018-Feb-14 01:00N 37°23' E 025°05'510.6
2018-Feb-14 00:30N 37°18' E 025°07'510.7
2018-Feb-14 00:00N 37°13' E 025°09'4 8.3
2018-Feb-13 23:30N 37°12' E 025°14'510.1
2018-Feb-13 23:00N 37°12' E 025°21'510.0
2018-Feb-13 22:30N 37°13' E 025°27'510.3
2018-Feb-13 21:59N 37°13' E 025°34'511.5
2018-Feb-13 21:30N 37°10' E 025°39'  
Track history (hours):
 
Tides and Currents Weather Stations Pressure Air Temp Water Temp Dewpoint Dewpoint Depression Visibility Wind Speed Wind Dir Waves Ship Positions

Veroniki III

Last reported at 2018-Feb-22 16:33 UTC. Time now 2018-Feb-22 20:32 UTC.
Position N 37°34' E 023°46'.

Length 51 m; draft 3.5 m.

Type: Tanker. MMSI: 240388000.

Date/timePositionNaut miles runAvg speedWind from/ knotsBaromVisibWave heightAir tempDewpointWater temp
2018-Feb-22 16:33N 37°34' E 023°46'310.3
2018-Feb-22 16:15N 37°36' E 023°44'310.4
2018-Feb-22 15:59N 37°39' E 023°43'510.3
2018-Feb-22 15:30N 37°43' E 023°40'510.4
2018-Feb-22 15:00N 37°48' E 023°37'510.2
2018-Feb-22 14:30N 37°53' E 023°36'5 9.3
2018-Feb-22 14:00N 37°57' E 023°33'4 8.7
2018-Feb-22 13:30N 38°01' E 023°35'1 1.2
2018-Feb-22 13:00N 38°02' E 023°36'0 0.0
2018-Feb-22 12:30N 38°02' E 023°36'0 0.0
2018-Feb-22 12:00N 38°02' E 023°36'0 0.0
2018-Feb-22 11:30N 38°02' E 023°36'0 0.0
2018-Feb-22 11:00N 38°02' E 023°36'0 0.0
2018-Feb-22 10:30N 38°02' E 023°36'0 0.0
2018-Feb-22 10:00N 38°02' E 023°36'0 0.0
2018-Feb-22 09:30N 38°02' E 023°36'0 0.0
2018-Feb-22 09:00N 38°02' E 023°36'0 0.0
2018-Feb-22 08:30N 38°02' E 023°36'0 0.0
2018-Feb-22 08:00N 38°02' E 023°36'0 0.0
2018-Feb-22 07:30N 38°02' E 023°36'0 0.0
2018-Feb-22 07:01N 38°02' E 023°36'0 0.0
2018-Feb-22 06:29N 38°02' E 023°36'0 0.0
2018-Feb-22 06:00N 38°02' E 023°36'0 0.0
2018-Feb-22 05:30N 38°02' E 023°36'0 0.0
2018-Feb-22 05:00N 38°02' E 023°36'0 0.0
2018-Feb-22 04:30N 38°02' E 023°36'0 0.0
2018-Feb-22 04:00N 38°02' E 023°36'0 0.5
2018-Feb-22 03:30N 38°02' E 023°35'0 0.0
2018-Feb-22 03:00N 38°02' E 023°35'0 0.0
2018-Feb-22 02:30N 38°02' E 023°35'0 0.0
2018-Feb-22 02:00N 38°02' E 023°35'0 0.1
2018-Feb-22 01:30N 38°02' E 023°35'0 0.0
2018-Feb-22 01:00N 38°02' E 023°35'0 0.0
2018-Feb-22 00:31N 38°02' E 023°35'0 0.0
2018-Feb-22 00:00N 38°02' E 023°35'0 0.0
2018-Feb-21 23:30N 38°02' E 023°35'0 0.0
2018-Feb-21 23:00N 38°02' E 023°35'2 3.1
2018-Feb-21 22:30N 38°01' E 023°34'3 5.3
2018-Feb-21 22:01N 38°02' E 023°31'0 0.0
2018-Feb-21 21:31N 38°02' E 023°31'0 0.0
2018-Feb-21 21:00N 38°02' E 023°31'0 0.0
2018-Feb-21 20:31N 38°02' E 023°31'0 0.0
2018-Feb-21 20:00N 38°02' E 023°31'0 0.0
2018-Feb-21 19:30N 38°02' E 023°31'0 0.0
2018-Feb-21 19:00N 38°02' E 023°31'0 0.0
2018-Feb-21 18:31N 38°02' E 023°31'0 0.0
2018-Feb-21 18:00N 38°02' E 023°31'0 0.0
2018-Feb-21 17:30N 38°02' E 023°31'0 0.0
2018-Feb-21 17:00N 38°02' E 023°31'0 0.0
2018-Feb-21 16:30N 38°02' E 023°31'0 0.0
2018-Feb-21 16:00N 38°02' E 023°31'0 0.0
2018-Feb-21 15:31N 38°02' E 023°31'1 1.4
2018-Feb-21 15:00N 38°02' E 023°31'0 0.1
2018-Feb-21 14:30N 38°02' E 023°31'0 0.0
2018-Feb-21 14:01N 38°02' E 023°31'0 0.0
2018-Feb-21 13:30N 38°02' E 023°31'0 0.0
2018-Feb-21 13:00N 38°02' E 023°31'0 0.2
2018-Feb-21 12:30N 38°02' E 023°31'3 6.6
2018-Feb-21 12:00N 38°02' E 023°36'0 0.0
2018-Feb-21 11:30N 38°02' E 023°36'0 0.0
2018-Feb-21 11:00N 38°02' E 023°36'0 0.0
2018-Feb-21 10:30N 38°02' E 023°36'0 0.0
2018-Feb-21 10:00N 38°02' E 023°36'0 0.0
2018-Feb-21 09:30N 38°02' E 023°36'0 0.0
2018-Feb-21 09:00N 38°02' E 023°36'0 0.0
2018-Feb-21 08:30N 38°02' E 023°36'0 0.0
2018-Feb-21 08:00N 38°02' E 023°36'0 0.0
2018-Feb-21 07:30N 38°02' E 023°36'0 0.0
2018-Feb-21 07:00N 38°02' E 023°36'0 0.0
2018-Feb-21 06:30N 38°02' E 023°36'0 0.0
2018-Feb-21 06:00N 38°02' E 023°36'0 0.0
2018-Feb-21 05:30N 38°02' E 023°36'0 0.0
2018-Feb-21 05:00N 38°02' E 023°36'0 0.0
2018-Feb-21 04:31N 38°02' E 023°36'0 0.0
2018-Feb-21 04:00N 38°02' E 023°36'0 0.0
2018-Feb-21 03:30N 38°02' E 023°36'0 0.0
2018-Feb-21 03:00N 38°02' E 023°36'0 0.0
2018-Feb-21 02:30N 38°02' E 023°36'0 0.0
2018-Feb-21 02:00N 38°02' E 023°36'0 0.0
2018-Feb-21 01:30N 38°02' E 023°36'0 0.0
2018-Feb-21 01:00N 38°02' E 023°36'0 0.0
2018-Feb-21 00:30N 38°02' E 023°36'0 0.0
2018-Feb-21 00:00N 38°02' E 023°36'0 0.0
2018-Feb-20 23:30N 38°02' E 023°36'0 0.0
2018-Feb-20 23:00N 38°02' E 023°36'0 0.0
2018-Feb-20 22:30N 38°02' E 023°36'0 0.0
2018-Feb-20 22:00N 38°02' E 023°36'0 0.0
2018-Feb-20 21:30N 38°02' E 023°36'0 0.0
2018-Feb-20 21:00N 38°02' E 023°36'0 0.0
2018-Feb-20 20:30N 38°02' E 023°36'0 0.0
2018-Feb-20 20:00N 38°02' E 023°36'0 0.0
2018-Feb-20 19:30N 38°02' E 023°36'0 0.0
2018-Feb-20 19:00N 38°02' E 023°36'0 0.0
2018-Feb-20 18:30N 38°02' E 023°36'0 0.3
2018-Feb-20 18:00N 38°02' E 023°35'3 6.3
2018-Feb-20 17:30N 38°02' E 023°31'1 1.8
2018-Feb-20 17:00N 38°02' E 023°31'0 0.0
2018-Feb-20 16:30N 38°02' E 023°31'0 0.0
2018-Feb-20 16:00N 38°02' E 023°31'0 0.0
2018-Feb-20 15:30N 38°02' E 023°31'0 0.0
2018-Feb-20 15:00N 38°02' E 023°31'0 0.0
2018-Feb-20 14:30N 38°02' E 023°31'0 0.0
2018-Feb-20 14:00N 38°02' E 023°31'0 0.0
2018-Feb-20 13:30N 38°02' E 023°31'0 0.0
2018-Feb-20 13:00N 38°02' E 023°31'0 0.0
2018-Feb-20 12:30N 38°02' E 023°31'0 0.7
2018-Feb-20 12:00N 38°02' E 023°31'3 6.2
2018-Feb-20 11:30N 38°01' E 023°35'1 1.9
2018-Feb-20 11:00N 38°02' E 023°36'0 0.0
2018-Feb-20 10:30N 38°02' E 023°36'0 0.0
2018-Feb-20 10:00N 38°02' E 023°36'0 0.0
2018-Feb-20 09:30N 38°02' E 023°36'0 0.0
2018-Feb-20 09:00N 38°02' E 023°36'0 0.0
2018-Feb-20 08:30N 38°02' E 023°36'0 0.0
2018-Feb-20 08:00N 38°02' E 023°36'0 0.0
2018-Feb-20 07:30N 38°02' E 023°36'0 0.0
2018-Feb-20 07:00N 38°02' E 023°36'0 0.0
2018-Feb-20 06:30N 38°02' E 023°36'0 0.0
2018-Feb-20 06:00N 38°02' E 023°36'0 0.0
2018-Feb-20 05:30N 38°02' E 023°36'0 0.0
2018-Feb-20 05:00N 38°02' E 023°36'0 0.0
2018-Feb-20 04:30N 38°02' E 023°36'0 0.0
2018-Feb-20 04:00N 38°02' E 023°36'0 0.0
2018-Feb-20 03:30N 38°02' E 023°36'0 0.0
2018-Feb-20 03:00N 38°02' E 023°36'0 0.0
2018-Feb-20 02:30N 38°02' E 023°36'0 0.0
2018-Feb-20 02:01N 38°02' E 023°36'0 0.0
2018-Feb-20 01:30N 38°02' E 023°36'0 0.0
2018-Feb-20 01:00N 38°02' E 023°36'0 0.0
2018-Feb-20 00:30N 38°02' E 023°36'0 0.0
2018-Feb-20 00:01N 38°02' E 023°36'0 0.0
2018-Feb-19 23:30N 38°02' E 023°36'0 0.0
2018-Feb-19 23:00N 38°02' E 023°36'0 0.0
2018-Feb-19 22:30N 38°02' E 023°36'0 0.0
2018-Feb-19 22:01N 38°02' E 023°36'0 0.0
2018-Feb-19 21:30N 38°02' E 023°36'0 0.0
2018-Feb-19 21:00N 38°02' E 023°36'0 0.0
2018-Feb-19 20:30N 38°02' E 023°36'0 0.0
2018-Feb-19 20:00N 38°02' E 023°36'0 0.0
2018-Feb-19 19:30N 38°02' E 023°36'0 0.0
2018-Feb-19 19:00N 38°02' E 023°36'0 0.0
2018-Feb-19 18:30N 38°02' E 023°36'0 0.0
2018-Feb-19 18:00N 38°02' E 023°36'0 0.0
2018-Feb-19 17:30N 38°02' E 023°36'0 0.0
2018-Feb-19 17:00N 38°02' E 023°36'0 0.0
2018-Feb-19 16:30N 38°02' E 023°36'0 0.0
2018-Feb-19 15:59N 38°02' E 023°36'0 0.0
2018-Feb-19 15:30N 38°02' E 023°36'0 0.0
2018-Feb-19 15:00N 38°02' E 023°36'0 0.0
2018-Feb-19 14:30N 38°02' E 023°36'0 0.0
2018-Feb-19 14:00N 38°02' E 023°36'0 0.0
2018-Feb-19 13:30N 38°02' E 023°36'0 0.0
2018-Feb-19 13:00N 38°02' E 023°36'0 0.0
2018-Feb-19 12:30N 38°02' E 023°36'0 0.0
2018-Feb-19 12:00N 38°02' E 023°36'4 7.6
2018-Feb-19 11:30N 37°59' E 023°33'5 9.7
2018-Feb-19 11:00N 37°54' E 023°36'511.1
2018-Feb-19 10:30N 37°50' E 023°40'611.0
2018-Feb-19 10:00N 37°45' E 023°42'510.9
2018-Feb-19 09:30N 37°40' E 023°46'70 1.9
2018-Feb-17 19:41N 37°54' E 025°13'2 8.2
2018-Feb-17 19:30N 37°54' E 025°12'5 8.2
2018-Feb-17 18:55N 37°51' E 025°07'6 8.3
2018-Feb-17 18:08N 37°47' E 024°60'0 0.0
2018-Feb-16 22:40N 37°47' E 024°60'1 5.4
2018-Feb-16 22:29N 37°46' E 025°01'3 6.0
2018-Feb-16 21:55N 37°43' E 024°60'6 7.2
2018-Feb-16 21:04N 37°42' E 024°52'110.0
2018-Feb-16 20:59N 37°42' E 024°51'54 8.3
2018-Feb-16 14:32N 37°40' E 023°43'010.3
2018-Feb-16 14:30N 37°40' E 023°43'510.4
2018-Feb-16 14:00N 37°45' E 023°39'510.9
2018-Feb-16 13:30N 37°49' E 023°36'510.4
2018-Feb-16 13:00N 37°51' E 023°30'510.6
2018-Feb-16 12:30N 37°53' E 023°24'5 9.4
2018-Feb-16 12:00N 37°57' E 023°25'4 7.9
2018-Feb-16 11:30N 38°01' E 023°28'3 5.3
2018-Feb-16 11:00N 38°02' E 023°31'0 0.0
2018-Feb-16 10:31N 38°02' E 023°31'0 0.0
2018-Feb-16 10:00N 38°02' E 023°31'0 0.0
2018-Feb-16 09:30N 38°02' E 023°31'0 0.0
2018-Feb-16 09:00N 38°02' E 023°31'0 0.0
2018-Feb-16 08:30N 38°02' E 023°31'0 0.0
2018-Feb-16 08:00N 38°02' E 023°31'0 0.0
2018-Feb-16 07:30N 38°02' E 023°31'0 0.0
2018-Feb-16 07:00N 38°02' E 023°31'0 0.0
2018-Feb-16 06:30N 38°02' E 023°31'0 0.8
2018-Feb-16 06:00N 38°02' E 023°31'3 6.4
2018-Feb-16 05:30N 38°01' E 023°35'1 1.4
2018-Feb-16 05:00N 38°02' E 023°36'0 0.0
2018-Feb-16 04:30N 38°02' E 023°36'0 0.0
2018-Feb-16 04:00N 38°02' E 023°36'0 0.0
2018-Feb-16 03:30N 38°02' E 023°36'0 0.0
2018-Feb-16 03:00N 38°02' E 023°36'0 0.0
2018-Feb-16 02:30N 38°02' E 023°36'0 0.0
2018-Feb-16 02:00N 38°02' E 023°36'0 0.0
2018-Feb-16 01:30N 38°02' E 023°36'0 0.0
2018-Feb-16 01:00N 38°02' E 023°36'0 0.0
2018-Feb-16 00:30N 38°02' E 023°36'0 0.0
2018-Feb-16 00:00N 38°02' E 023°36'0 0.0
2018-Feb-15 23:31N 38°02' E 023°36'0 0.0
2018-Feb-15 23:00N 38°02' E 023°36'0 0.0
2018-Feb-15 22:30N 38°02' E 023°36'0 0.0
2018-Feb-15 22:00N 38°02' E 023°36'0 0.0
2018-Feb-15 21:30N 38°02' E 023°36'0 0.0
2018-Feb-15 21:00N 38°02' E 023°36'0 0.0
2018-Feb-15 20:30N 38°02' E 023°36'0 0.0
2018-Feb-15 20:00N 38°02' E 023°36'0 0.0
2018-Feb-15 19:30N 38°02' E 023°36'0 0.0
2018-Feb-15 19:01N 38°02' E 023°36'0 0.0
2018-Feb-15 18:30N 38°02' E 023°36'0 0.0
2018-Feb-15 18:00N 38°02' E 023°36'0 0.0
2018-Feb-15 17:30N 38°02' E 023°36'0 0.0
2018-Feb-15 17:00N 38°02' E 023°36'0 0.0
2018-Feb-15 16:30N 38°02' E 023°36'0 0.0
2018-Feb-15 16:00N 38°02' E 023°36'0 0.0
2018-Feb-15 15:31N 38°02' E 023°36'0 0.0
2018-Feb-15 15:01N 38°02' E 023°36'0 0.0
2018-Feb-15 14:30N 38°02' E 023°36'0 0.0
2018-Feb-15 14:00N 38°02' E 023°36'0 0.0
2018-Feb-15 13:30N 38°02' E 023°36'0 0.0
2018-Feb-15 13:00N 38°02' E 023°36'0 0.0
2018-Feb-15 12:30N 38°02' E 023°36'0 0.0
2018-Feb-15 12:00N 38°02' E 023°36'0 0.0
2018-Feb-15 11:30N 38°02' E 023°36'0 0.0
2018-Feb-15 11:00N 38°02' E 023°36'0 0.0
2018-Feb-15 10:31N 38°02' E 023°36'0 0.0
2018-Feb-15 10:00N 38°02' E 023°36'0 0.0
2018-Feb-15 09:30N 38°02' E 023°36'0 0.0
2018-Feb-15 09:00N 38°02' E 023°36'3 5.8
2018-Feb-15 08:31N 38°01' E 023°32'1 2.9
2018-Feb-15 08:00N 38°02' E 023°31'0 0.0
2018-Feb-15 07:30N 38°02' E 023°31'0 0.0
2018-Feb-15 07:00N 38°02' E 023°31'0 0.0
2018-Feb-15 06:30N 38°02' E 023°31'0 0.0
2018-Feb-15 06:00N 38°02' E 023°31'0 0.0
2018-Feb-15 05:30N 38°02' E 023°31'0 0.0
2018-Feb-15 05:00N 38°02' E 023°31'0 0.0
2018-Feb-15 04:31N 38°02' E 023°31'0 0.0
2018-Feb-15 04:00N 38°02' E 023°31'0 0.0
2018-Feb-15 03:29N 38°02' E 023°31'0 0.0
2018-Feb-15 03:00N 38°02' E 023°31'0 0.0
2018-Feb-15 02:30N 38°02' E 023°31'1 1.8
2018-Feb-15 02:00N 38°01' E 023°31'0 0.1
2018-Feb-15 01:30N 38°01' E 023°31'0 0.0
2018-Feb-15 01:00N 38°01' E 023°31'0 0.0
2018-Feb-15 00:30N 38°01' E 023°31'0 0.0
2018-Feb-15 00:00N 38°01' E 023°31'0 0.0
2018-Feb-14 23:30N 38°01' E 023°31'3 5.4
2018-Feb-14 23:00N 38°00' E 023°28'4 7.9
2018-Feb-14 22:30N 37°57' E 023°24'4 8.9
2018-Feb-14 22:01N 37°53' E 023°23'611.1
2018-Feb-14 21:30N 37°51' E 023°29'510.9
2018-Feb-14 21:00N 37°50' E 023°36'510.0
2018-Feb-14 20:30N 37°47' E 023°41'52 9.7
2018-Feb-14 15:11N 37°33' E 024°44'2 9.8
2018-Feb-14 15:00N 37°33' E 024°46'8 9.8
2018-Feb-14 14:10N 37°31' E 024°56'510.2
2018-Feb-14 13:42N 37°27' E 024°60'2 9.1
2018-Feb-14 13:30N 37°25' E 024°59'0 0.1
2018-Feb-14 12:44N 37°25' E 024°59'0 0.0
2018-Feb-14 12:11N 37°25' E 024°59'0 0.0
2018-Feb-14 11:50N 37°25' E 024°59'0 0.0
2018-Feb-14 10:50N 37°25' E 024°59'0 0.0
2018-Feb-14 04:56N 37°25' E 024°59'0 0.0
2018-Feb-14 04:29N 37°25' E 024°59'0 0.0
2018-Feb-14 03:29N 37°25' E 024°59'0 0.0
2018-Feb-14 02:59N 37°25' E 024°59'0 0.0
2018-Feb-14 02:17N 37°25' E 024°59'0 0.9
2018-Feb-14 02:00N 37°25' E 024°59'4 7.8
2018-Feb-14 01:29N 37°28' E 025°03'510.5
2018-Feb-14 01:00N 37°23' E 025°05'510.6
2018-Feb-14 00:30N 37°18' E 025°07'510.7
2018-Feb-14 00:00N 37°13' E 025°09'4 8.3
2018-Feb-13 23:30N 37°12' E 025°14'510.1
2018-Feb-13 23:00N 37°12' E 025°21'510.0
2018-Feb-13 22:30N 37°13' E 025°27'510.3
2018-Feb-13 21:59N 37°13' E 025°34'511.5
2018-Feb-13 21:30N 37°10' E 025°39'  

Dump ship's entire track history